Time;durP1;ratioP1;P1;durP2;ratioP2;P2;SDS_P1;SDS_P2;PMS_P1;PMS_P2;Temp;Humidity;BMP_temperature;BMP_pressure;BME280_temperature;BME280_humidity;BME280_pressure;Samples;Min_cycle;Max_cycle;Signal;HPM_P1;HPM_P2
2021/10/22 00:02:14;;;;;;;;;9.33;9.33;;;;;-146.37;100.00;59337.28;6284924;22;45369;-82
2021/10/22 00:04:45;;;;;;;;;14.00;10.00;;;;;-146.37;100.00;59337.28;6286124;22;45588;-83
2021/10/22 00:07:24;;;;;;;;;11.33;9.00;;;;;-146.37;100.00;59337.28;6285385;22;47086;-82
2021/10/22 00:09:59;;;;;;;;;9.00;8.33;;;;;-146.37;100.00;59337.28;6284924;22;45752;-82
2021/10/22 00:12:30;;;;;;;;;11.00;9.00;;;;;-146.37;100.00;59337.28;6284571;22;45351;-82
2021/10/22 00:15:08;;;;;;;;;;;;;;;;;;;;;
2021/10/22 00:17:55;;;;;;;;;;;;;;;;;;;;;
2021/10/22 00:20:43;;;;;;;;;;;;;;;;;;;;;
2021/10/22 00:23:09;;;;;;;;;10.33;8.67;;;;;-146.37;100.00;59337.28;6312863;22;67969;-83
2021/10/22 00:29:00;;;;;;;;;9.67;8.00;;;;;-146.37;100.00;59337.28;6312233;22;45396;-83
2021/10/22 00:31:28;;;;;;;;;9.00;8.67;;;;;-146.37;100.00;59337.28;6285865;22;45527;-83
2021/10/22 00:34:06;;;;;;;;;;;;;;;;;;;;;
2021/10/22 00:36:32;;;;;;;;;12.00;9.33;;;;;-146.37;100.00;59337.28;6313844;22;65141;-82
2021/10/22 00:38:58;;;;;;;;;7.67;7.67;;;;;-146.37;100.00;59337.28;6286669;22;47076;-82
2021/10/22 00:41:25;;;;;;;;;7.00;7.00;;;;;-146.37;100.00;59337.28;6284987;22;45401;-83
2021/10/22 00:44:03;;;;;;;;;;;;;;;;;;;;;
2021/10/22 00:46:43;;;;;;;;;;;;;;;;;;;;;
2021/10/22 00:49:21;;;;;;;;;6.67;6.00;;;;;-146.37;100.00;59337.28;6311530;22;75090;-82
2021/10/22 00:52:27;;;;;;;;;7.00;7.00;;;;;-146.37;100.00;59337.28;6285582;22;45693;-82
2021/10/22 00:55:04;;;;;;;;;;;;;;;;;;;;;
2021/10/22 00:57:39;;;;;;;;;;;;;;;;;;;;;
2021/10/22 01:00:09;;;;;;;;;7.00;7.00;;;;;-146.37;100.00;59337.28;6310860;22;75344;-84
2021/10/22 01:02:49;;;;;;;;;;;;;;;;;;;;;
2021/10/22 01:08:38;;;;;;;;;8.00;8.00;;;;;-146.37;100.00;59337.28;6316109;22;45294;-83
2021/10/22 01:11:19;;;;;;;;;;;;;;;;;;;;;
2021/10/22 01:13:56;;;;;;;;;9.33;9.33;;;;;-146.37;100.00;59337.28;6315655;22;71758;-83
2021/10/22 01:16:30;;;;;;;;;11.33;11.33;;;;;-146.37;100.00;59337.28;6290572;22;45541;-83
2021/10/22 01:19:09;;;;;;;;;;;;;;;;;;;;;
2021/10/22 01:21:36;;;;;;;;;10.33;8.67;;;;;-146.37;100.00;59337.28;6314515;22;74042;-83
2021/10/22 01:24:03;;;;;;;;;8.00;8.00;;;;;-146.37;100.00;59337.28;6287883;22;45541;-84
2021/10/22 01:26:37;;;;;;;;;9.00;7.67;;;;;-146.37;100.00;59337.28;6287902;22;44894;-84
2021/10/22 01:29:09;;;;;;;;;7.33;7.33;;;;;-146.37;100.00;59337.28;6289069;22;45631;-82
2021/10/22 01:31:57;;;;;;;;;7.33;7.33;;;;;-146.37;100.00;59337.28;6287910;22;45485;-83
2021/10/22 01:34:28;;;;;;;;;4.67;4.67;;;;;-146.37;100.00;59337.28;6287949;22;45463;-83
2021/10/22 01:36:54;;;;;;;;;10.67;8.00;;;;;-146.37;100.00;59337.28;6315633;22;45378;-83
2021/10/22 01:39:22;;;;;;;;;7.33;7.00;;;;;-146.37;100.00;59337.28;6288201;22;45266;-84
2021/10/22 01:41:48;;;;;;;;;7.00;7.00;;;;;-146.37;100.00;59337.28;6289055;22;48349;-83
2021/10/22 01:44:22;;;;;;;;;7.33;7.33;;;;;-146.37;100.00;59337.28;6290346;22;45441;-83
2021/10/22 01:46:50;;;;;;;;;9.67;9.67;;;;;-146.37;100.00;59337.28;6287851;22;45673;-83
2021/10/22 01:49:16;;;;;;;;;7.00;7.00;;;;;-146.37;100.00;59337.28;6289377;22;45286;-83
2021/10/22 01:51:44;;;;;;;;;7.00;7.00;;;;;-146.37;100.00;59337.28;6288035;22;47050;-83
2021/10/22 01:54:12;;;;;;;;;7.00;7.00;;;;;-146.37;100.00;59337.28;6288796;22;45259;-83
2021/10/22 01:56:56;;;;;;;;;;;;;;;;;;;;;
2021/10/22 01:59:51;;;;;;;;;;;;;;;;;;;;;
2021/10/22 02:02:30;;;;;;;;;12.00;9.00;;;;;-146.37;100.00;59337.28;6312748;22;74461;-83
2021/10/22 02:05:26;;;;;;;;;11.00;11.00;;;;;-146.37;100.00;59337.28;6286917;22;45459;-84
2021/10/22 02:07:52;;;;;;;;;7.67;7.67;;;;;-146.37;100.00;59337.28;6290446;22;44677;-84
2021/10/22 02:10:56;;;;;;;;;9.00;7.00;;;;;-146.37;100.00;59337.28;6314775;22;45729;-83
2021/10/22 02:13:35;;;;;;;;;;;;;;;;;;;;;
2021/10/22 02:16:03;;;;;;;;;6.33;6.33;;;;;-146.37;100.00;59337.28;6312920;22;72393;-84
2021/10/22 02:18:30;;;;;;;;;13.00;10.00;;;;;-146.37;100.00;59337.28;6286717;22;45691;-84
2021/10/22 02:20:55;;;;;;;;;13.00;9.33;;;;;-146.37;100.00;59337.28;6287731;22;45378;-84
2021/10/22 02:23:21;;;;;;;;;11.67;9.67;;;;;-146.37;100.00;59337.28;6285287;22;46816;-83
2021/10/22 02:25:49;;;;;;;;;8.00;8.00;;;;;-146.37;100.00;59337.28;6288392;22;45672;-84
2021/10/22 02:28:18;;;;;;;;;6.00;6.00;;;;;-146.37;100.00;59337.28;6315082;22;45134;-84
2021/10/22 02:31:04;;;;;;;;;6.00;6.00;;;;;-146.37;100.00;59337.28;6289414;22;45380;-84
2021/10/22 02:33:32;;;;;;;;;6.67;6.67;;;;;-146.37;100.00;59337.28;6288754;22;45407;-83
2021/10/22 02:36:00;;;;;;;;;7.67;7.67;;;;;-146.37;100.00;59337.28;6291108;22;45415;-84
2021/10/22 02:38:45;;;;;;;;;7.00;7.00;;;;;-146.37;100.00;59337.28;6291805;22;44748;-83
2021/10/22 02:41:11;;;;;;;;;6.33;4.67;;;;;-146.37;100.00;59337.28;6289801;22;45599;-83
2021/10/22 02:43:48;;;;;;;;;8.00;8.00;;;;;-146.37;100.00;59337.28;6313617;22;45521;-84
2021/10/22 02:46:16;;;;;;;;;4.00;4.00;;;;;-146.37;100.00;59337.28;6286768;22;45557;-84
2021/10/22 02:48:55;;;;;;;;;;;;;;;;;;;;;
2021/10/22 02:51:29;;;;;;;;;7.33;6.00;;;;;-146.37;100.00;59337.28;6313976;22;64305;-83
2021/10/22 02:54:15;;;;;;;;;;;;;;;;;;;;;
2021/10/22 02:57:01;;;;;;;;;;;;;;;;;;;;;
2021/10/22 02:59:31;;;;;;;;;8.33;7.67;;;;;-146.37;100.00;59337.28;6312324;22;67680;-84
2021/10/22 03:01:57;;;;;;;;;5.33;4.67;;;;;-146.37;100.00;59337.28;6286884;22;44899;-83
2021/10/22 03:04:32;;;;;;;;;6.00;6.00;;;;;-146.37;100.00;59337.28;6286971;22;46897;-83
2021/10/22 03:06:57;;;;;;;;;7.67;7.67;;;;;-146.37;100.00;59337.28;6288701;22;45344;-83
2021/10/22 03:09:35;;;;;;;;;7.00;6.67;;;;;-146.37;100.00;59337.28;6314817;22;45372;-82
2021/10/22 03:12:02;;;;;;;;;7.67;7.67;;;;;-146.37;100.00;59337.28;6286690;22;45437;-85
2021/10/22 03:17:59;;;;;;;;;;;;;;;;;;;;;
2021/10/22 03:20:25;;;;;;;;;7.00;7.00;;;;;-146.37;100.00;59337.28;6314053;22;68862;-84
2021/10/22 03:22:50;;;;;;;;;7.00;7.00;;;;;-146.37;100.00;59337.28;6289116;22;45317;-83
2021/10/22 03:25:18;;;;;;;;;7.00;7.00;;;;;-146.37;100.00;59337.28;6287972;22;46817;-84
2021/10/22 03:28:05;;;;;;;;;8.00;8.00;;;;;-146.37;100.00;59337.28;6290015;22;45553;-83
2021/10/22 03:30:40;;;;;;;;;4.00;4.00;;;;;-146.37;100.00;59337.28;6289191;22;45415;-84
2021/10/22 03:33:09;;;;;;;;;7.00;6.33;;;;;-146.37;100.00;59337.28;6261697;22;45426;-84
2021/10/22 03:35:39;;;;;;;;;7.00;7.00;;;;;-146.37;100.00;59337.28;6287181;22;45344;-84
2021/10/22 03:38:21;;;;;;;;;6.00;6.00;;;;;-146.37;100.00;59337.28;6286641;22;45348;-84
2021/10/22 03:41:19;;;;;;;;;;;;;;;;;;;;;
2021/10/22 03:43:46;;;;;;;;;;;;;;;;;;;;;
2021/10/22 03:46:19;;;;;;;;;11.00;11.00;;;;;-146.37;100.00;59337.28;6314754;22;72765;-84
2021/10/22 03:48:44;;;;;;;;;9.67;9.67;;;;;-146.37;100.00;59337.28;6289818;22;45235;-84
2021/10/22 03:51:20;;;;;;;;;;;;;;;;;;;;;
2021/10/22 03:54:01;;;;;;;;;;;;;;;;;;;;;
2021/10/22 03:56:39;;;;;;;;;;;;;;;;;;;;;
2021/10/22 03:59:08;;;;;;;;;9.00;7.33;;;;;-146.37;100.00;59337.28;6314817;22;72989;-83
2021/10/22 04:01:35;;;;;;;;;9.00;8.67;;;;;-146.37;100.00;59337.28;6290769;22;45455;-84
2021/10/22 04:04:01;;;;;;;;;8.00;6.67;;;;;-146.37;100.00;59337.28;6292042;22;45135;-83
2021/10/22 04:06:30;;;;;;;;;11.00;10.67;;;;;-146.37;100.00;59337.28;6292031;22;45504;-83
2021/10/22 04:09:08;;;;;;;;;;;;;;;;;;;;;
2021/10/22 04:11:35;;;;;;;;;11.33;8.33;;;;;-146.37;100.00;59337.28;6311982;22;68602;-84
2021/10/22 04:14:07;;;;;;;;;10.67;9.67;;;;;-146.37;100.00;59337.28;6286795;22;45469;-82
2021/10/22 04:16:36;;;;;;;;;5.33;5.33;;;;;-146.37;100.00;59337.28;6314435;22;45461;-84
2021/10/22 04:19:02;;;;;;;;;12.00;10.33;;;;;-146.37;100.00;59337.28;6287964;22;45479;-83
2021/10/22 04:21:29;;;;;;;;;8.67;8.67;;;;;-146.37;100.00;59337.28;6317188;22;45965;-84
2021/10/22 04:23:55;;;;;;;;;10.67;8.00;;;;;-146.37;100.00;59337.28;6290245;22;45307;-84
2021/10/22 04:26:21;;;;;;;;;7.33;7.00;;;;;-146.37;100.00;59337.28;6290051;22;45313;-84
2021/10/22 04:29:02;;;;;;;;;6.00;6.00;;;;;-146.37;100.00;59337.28;6289158;22;45702;-84
2021/10/22 04:31:40;;;;;;;;;11.00;9.33;;;;;-146.37;100.00;59337.28;6290259;22;44822;-84
2021/10/22 04:34:32;;;;;;;;;;;;;;;;;;;;;
2021/10/22 04:37:22;;;;;;;;;12.67;8.00;;;;;-146.37;100.00;59337.28;6307266;22;74404;-83
2021/10/22 04:42:54;;;;;;;;;8.00;8.00;;;;;-146.37;100.00;59337.28;6317325;22;45337;-82
2021/10/22 04:45:22;;;;;;;;;4.67;4.67;;;;;-146.37;100.00;59337.28;6288899;22;45254;-83
2021/10/22 04:48:03;;;;;;;;;5.00;3.67;;;;;-146.37;100.00;59337.28;6288185;22;46721;-83
2021/10/22 04:50:50;;;;;;;;;;;;;;;;;;;;;
2021/10/22 04:53:43;;;;;;;;;;;;;;;;;;;;;
2021/10/22 04:56:09;;;;;;;;;6.67;6.67;;;;;-146.37;100.00;59337.28;6317468;22;65064;-83
2021/10/22 04:58:40;;;;;;;;;4.67;4.67;;;;;-146.37;100.00;59337.28;6289154;22;47000;-83
2021/10/22 05:01:09;;;;;;;;;3.00;3.00;;;;;-146.37;100.00;59337.28;6318214;22;44779;-83
2021/10/22 05:03:34;;;;;;;;;7.00;7.00;;;;;-146.37;100.00;59337.28;6315980;22;45282;-83
2021/10/22 05:06:10;;;;;;;;;;;;;;;;;;;;;
2021/10/22 05:08:49;;;;;;;;;12.00;10.67;;;;;-146.37;100.00;59337.28;6315459;22;75182;-83
2021/10/22 05:11:16;;;;;;;;;8.33;8.00;;;;;-146.37;100.00;59337.28;6288339;22;45409;-83
2021/10/22 05:14:10;;;;;;;;;;;;;;;;;;;;;
2021/10/22 05:16:31;;;;;;;;;11.67;11.00;;;;;-146.37;100.00;59337.28;6315457;22;44931;-83
2021/10/22 05:19:01;;;;;;;;;6.33;6.33;;;;;-146.37;100.00;59337.28;6318672;22;46142;-83
2021/10/22 05:21:41;;;;;;;;;11.33;8.33;;;;;-146.37;100.00;59337.28;6289140;22;45365;-83
2021/10/22 05:24:15;;;;;;;;;16.67;12.00;;;;;-146.37;100.00;59337.28;6290163;22;45093;-83
2021/10/22 05:26:43;;;;;;;;;11.00;11.00;;;;;-146.37;100.00;59337.28;6288676;22;45349;-83
2021/10/22 05:29:14;;;;;;;;;8.33;8.33;;;;;-146.37;100.00;59337.28;6288795;22;46958;-84
2021/10/22 05:31:40;;;;;;;;;17.33;12.00;;;;;-146.37;100.00;59337.28;6288213;22;45419;-83
2021/10/22 05:34:26;;;;;;;;;;;;;;;;;;;;;
2021/10/22 05:37:05;;;;;;;;;12.33;9.33;;;;;-146.37;100.00;59337.28;6316106;22;65843;-83
2021/10/22 05:39:39;;;;;;;;;7.00;7.00;;;;;-146.37;100.00;59337.28;6290466;22;45717;-83
2021/10/22 05:42:13;;;;;;;;;5.33;5.33;;;;;-146.37;100.00;59337.28;6315897;22;45384;-83
2021/10/22 05:44:58;;;;;;;;;6.00;6.00;;;;;-146.37;100.00;59337.28;6290564;22;45477;-84
2021/10/22 05:47:40;;;;;;;;;;;;;;;;;;;;;
2021/10/22 05:50:19;;;;;;;;;15.00;11.33;;;;;-146.37;100.00;59337.28;6318446;22;74372;-84
2021/10/22 05:52:47;;;;;;;;;3.00;3.00;;;;;-146.37;100.00;59337.28;6266733;22;44810;-83
2021/10/22 05:55:22;;;;;;;;;9.00;9.00;;;;;-146.37;100.00;59337.28;6291989;22;45379;-84
2021/10/22 05:57:58;;;;;;;;;8.00;6.33;;;;;-146.37;100.00;59337.28;6291372;22;45415;-84
2021/10/22 06:00:24;;;;;;;;;5.67;5.67;;;;;-146.37;100.00;59337.28;6291947;22;45188;-84
2021/10/22 06:03:13;;;;;;;;;8.67;7.33;;;;;-146.37;100.00;59337.28;6317673;22;45333;-82
2021/10/22 06:06:07;;;;;;;;;10.00;7.33;;;;;-146.37;100.00;59337.28;6289424;22;44911;-86
2021/10/22 06:09:29;;;;;;;;;9.33;7.00;;;;;-146.37;100.00;59337.28;6291740;22;45518;-86
2021/10/22 06:11:54;;;;;;;;;6.00;6.00;;;;;-146.37;100.00;59337.28;6288744;22;46983;-85
2021/10/22 06:14:20;;;;;;;;;6.00;6.00;;;;;-146.37;100.00;59337.28;6290026;22;45291;-85
2021/10/22 06:16:54;;;;;;;;;8.67;7.00;;;;;-146.37;100.00;59337.28;6291729;22;45348;-85
2021/10/22 06:19:39;;;;;;;;;7.33;7.00;;;;;-146.37;100.00;59337.28;6290410;22;45613;-84
2021/10/22 06:22:17;;;;;;;;;8.00;8.00;;;;;-146.37;100.00;59337.28;6289551;22;47006;-84
2021/10/22 06:24:59;;;;;;;;;7.33;7.33;;;;;-146.37;100.00;59337.28;6286536;22;45897;-83
2021/10/22 06:27:25;;;;;;;;;8.00;8.00;;;;;-146.37;100.00;59337.28;6290313;22;45325;-84
2021/10/22 06:29:53;;;;;;;;;5.00;5.00;;;;;-146.37;100.00;59337.28;6288872;22;45359;-84
2021/10/22 06:32:30;;;;;;;;;7.67;6.33;;;;;-146.37;100.00;59337.28;6317879;22;45385;-84
2021/10/22 06:34:59;;;;;;;;;9.33;8.00;;;;;-146.37;100.00;59337.28;6321384;22;45362;-84
2021/10/22 06:37:27;;;;;;;;;8.33;7.33;;;;;-146.37;100.00;59337.28;6289326;22;45330;-84
2021/10/22 06:39:53;;;;;;;;;11.00;6.00;;;;;-146.37;100.00;59337.28;6289550;22;45823;-84
2021/10/22 06:42:29;;;;;;;;;;;;;;;;;;;;;
2021/10/22 06:45:04;;;;;;;;;7.33;6.00;;;;;-146.37;100.00;59337.28;6320200;22;72489;-84
2021/10/22 06:47:58;;;;;;;;;;;;;;;;;;;;;
2021/10/22 06:54:02;;;;;;;;;8.00;7.33;;;;;-146.37;100.00;59337.28;6192319;22;45370;-84
2021/10/22 06:56:50;;;;;;;;;9.00;7.67;;;;;-146.37;100.00;59337.28;6167953;23;45299;-86
2021/10/22 06:59:16;;;;;;;;;7.67;7.67;;;;;-146.37;100.00;59337.28;6169012;22;45563;-84
2021/10/22 07:01:59;;;;;;;;;7.00;7.00;;;;;-146.37;100.00;59337.28;6194062;22;45402;-84
2021/10/22 07:08:27;;;;;;;;;7.33;7.33;;;;;-146.37;100.00;59337.28;6131191;23;45360;-83
2021/10/22 07:10:56;;;;;;;;;5.00;5.00;;;;;-146.37;100.00;59337.28;6133648;23;45860;-84
2021/10/22 07:13:25;;;;;;;;;4.67;3.00;;;;;-146.37;100.00;59337.28;6125132;23;45337;-85
2021/10/22 07:16:03;;;;;;;;;;;;;;;;;;;;;
2021/10/22 07:18:42;;;;;;;;;4.00;4.00;;;;;-146.37;100.00;59337.28;6190086;23;72024;-83
2021/10/22 07:21:40;;;;;;;;;;;;;;;;;;;;;
2021/10/22 07:24:52;;;;;;;;;5.67;3.67;;;;;-146.37;100.00;59337.28;6182746;23;65081;-85
2021/10/22 07:27:51;;;;;;;;;10.67;8.00;;;;;-146.37;100.00;59337.28;6105348;23;48194;-83
2021/10/22 07:34:18;;;;;;;;;;;;;;;;;;;;;
2021/10/22 07:36:49;;;;;;;;;;;;;;;;;;;;;
2021/10/22 07:40:01;;;;;;;;;;;;;;;;;;;;;
2021/10/22 08:17:23;;;;;;;;;1.00;1.00;;;;;-146.37;100.00;59337.28;5737113;24;45391;-83
2021/10/22 08:27:15;;;;;;;;;;;;;;;;;;;;;
2021/10/22 08:30:10;;;;;;;;;5.00;4.00;;;;;-146.37;100.00;59337.28;5923996;23;66045;-82
2021/10/22 08:40:00;;;;;;;;;3.00;3.00;;;;;-146.37;100.00;59337.28;5982218;23;45424;-82
2021/10/22 08:42:50;;;;;;;;;;;;;;;;;;;;;
2021/10/22 08:45:23;;;;;;;;;2.67;2.00;;;;;-146.37;100.00;59337.28;6098570;23;74454;-81
2021/10/22 08:48:18;;;;;;;;;4.00;4.00;;;;;-146.37;100.00;59337.28;6087714;23;45503;-82
2021/10/22 08:51:32;;;;;;;;;1.33;1.33;;;;;-146.37;100.00;59337.28;6138254;23;45342;-85
2021/10/22 08:58:00;;;;;;;;;2.67;2.67;;;;;-146.37;100.00;59337.28;6079108;23;45015;-83
2021/10/22 09:00:52;;;;;;;;;3.33;2.67;;;;;-146.37;100.00;59337.28;6074920;23;44932;-84
2021/10/22 09:17:45;;;;;;;;;3.67;3.67;;;;;-146.37;100.00;59337.28;6104148;23;45597;-83
2021/10/22 09:20:23;;;;;;;;;1.00;1.00;;;;;-146.37;100.00;59337.28;6012306;23;45328;-83
2021/10/22 09:23:29;;;;;;;;;3.00;2.00;;;;;-146.37;100.00;59337.28;6016604;23;45623;-81
2021/10/22 09:26:13;;;;;;;;;1.33;1.33;;;;;-146.37;100.00;59337.28;6015101;23;45383;-83
2021/10/22 09:28:55;;;;;;;;;4.33;2.33;;;;;-146.37;100.00;59337.28;6014635;23;44888;-83
2021/10/22 09:41:24;;;;;;;;;3.33;3.33;;;;;-146.37;100.00;59337.28;6167587;23;45308;-83
2021/10/22 09:55:40;;;;;;;;;4.00;4.00;;;;;-146.37;100.00;59337.28;6041680;23;45794;-82
2021/10/22 10:02:27;;;;;;;;;;;;;;;;;;;;;
2021/10/22 10:05:51;;;;;;;;;;;;;;;;;;;;;
2021/10/22 10:27:50;;;;;;;;;7.00;4.00;;;;;-146.37;100.00;59337.28;5935487;23;45594;-84
2021/10/22 10:31:06;;;;;;;;;;;;;;;;;;;;;
2021/10/22 10:51:05;;;;;;;;;3.00;3.00;;;;;-146.37;100.00;59337.28;6245659;22;46401;-83
2021/10/22 10:54:17;;;;;;;;;;;;;;;;;;;;;
2021/10/22 10:57:12;;;;;;;;;3.00;3.00;;;;;-146.37;100.00;59337.28;6160538;23;72131;-84
2021/10/22 11:00:04;;;;;;;;;;;;;;;;;;;;;
2021/10/22 11:03:13;;;;;;;;;3.67;2.67;;;;;-146.37;100.00;59337.28;6101622;23;66084;-86
2021/10/22 11:06:20;;;;;;;;;;;;;;;;;;;;;
2021/10/22 11:08:53;;;;;;;;;3.67;3.67;;;;;-146.37;100.00;59337.28;6102323;23;45342;-85
2021/10/22 11:14:57;;;;;;;;;5.67;4.67;;;;;-146.37;100.00;59337.28;6072909;23;44880;-84
2021/10/22 11:17:36;;;;;;;;;5.67;4.33;;;;;-146.37;100.00;59337.28;6086775;23;44975;-84
2021/10/22 11:28:10;;;;;;;;;2.33;2.00;;;;;-146.37;100.00;59337.28;6012932;23;45026;-84
2021/10/22 11:31:18;;;;;;;;;3.67;3.00;;;;;-146.37;100.00;59337.28;5967646;23;47366;-83
2021/10/22 11:37:30;;;;;;;;;;;;;;;;;;;;;
2021/10/22 11:40:03;;;;;;;;;3.67;2.00;;;;;-146.37;100.00;59337.28;5901126;24;64813;-83
2021/10/22 11:43:10;;;;;;;;;;;;;;;;;;;;;
2021/10/22 11:46:11;;;;;;;;;;;;;;;;;;;;;
2021/10/22 11:52:33;;;;;;;;;3.00;3.00;;;;;-146.37;100.00;59337.28;5819427;24;45500;-84
2021/10/22 11:55:03;;;;;;;;;2.75;2.75;;;;;-146.37;100.00;59337.28;5737117;24;48053;-82
2021/10/22 11:57:59;;;;;;;;;4.33;3.00;;;;;-146.37;100.00;59337.28;5859745;24;45516;-85
2021/10/22 12:03:55;;;;;;;;;4.00;3.00;;;;;-146.37;100.00;59337.28;6008077;23;45525;-86
2021/10/22 12:09:51;;;;;;;;;3.00;3.00;;;;;-146.37;100.00;59337.28;6013896;23;45499;-86
2021/10/22 12:19:59;;;;;;;;;2.00;2.00;;;;;-146.37;100.00;59337.28;5996669;23;45063;-85
2021/10/22 12:23:17;;;;;;;;;;;;;;;;;;;;;
2021/10/22 12:27:21;;;;;;;;;;;;;;;;;;;;;
2021/10/22 12:31:07;;;;;;;;;;;;;;;;;;;;;
2021/10/22 12:33:24;;;;;;;;;1.33;1.00;;;;;-146.37;100.00;59337.28;6036673;23;45866;-83
2021/10/22 13:27:53;;;;;;;;;;;;;;;;;;;;;
2021/10/22 13:31:20;;;;;;;;;;;;;;;;;;;;;
2021/10/22 13:37:35;;;;;;;;;0.75;0.75;;;;;-146.37;100.00;59337.28;6220389;22;45484;-83
2021/10/22 13:40:20;;;;;;;;;2.75;2.00;;;;;-146.37;100.00;59337.28;6105995;23;44818;-85
2021/10/22 13:43:27;;;;;;;;;1.00;1.00;;;;;-146.37;100.00;59337.28;6106532;23;45033;-84
2021/10/22 13:46:21;;;;;;;;;1.33;1.00;;;;;-146.37;100.00;59337.28;6096924;23;45458;-86
2021/10/22 13:59:44;;;;;;;;;;;;;;;;;;;;;
2021/10/22 14:06:03;;;;;;;;;;;;;;;;;;;;;
2021/10/22 14:09:30;;;;;;;;;;;;;;;;;;;;;
2021/10/22 14:12:56;;;;;;;;;;;;;;;;;;;;;
2021/10/22 14:29:46;;;;;;;;;3.00;2.00;;;;;-146.37;100.00;59337.28;5946536;23;45773;-85
2021/10/22 14:32:15;;;;;;;;;2.67;2.67;;;;;-146.37;100.00;59337.28;6048942;23;44967;-87
2021/10/22 14:34:46;;;;;;;;;4.00;2.67;;;;;-146.37;100.00;59337.28;6112180;23;45267;-85
2021/10/22 14:41:12;;;;;;;;;1.33;1.33;;;;;-146.37;100.00;59337.28;6146337;23;45484;-86
2021/10/22 14:43:53;;;;;;;;;;;;;;;;;;;;;
2021/10/22 14:46:34;;;;;;;;;1.67;1.67;;;;;-146.37;100.00;59337.28;6157246;23;68071;-77
2021/10/22 14:49:16;;;;;;;;;;;;;;;;;;;;;
2021/10/22 14:54:24;;;;;;;;;2.67;2.00;;;;;-146.37;100.00;59337.28;6154359;23;45553;-78
2021/10/22 14:56:52;;;;;;;;;3.00;3.00;;;;;-146.37;100.00;59337.28;6127334;23;45389;-76
2021/10/22 14:59:31;;;;;;;;;2.67;2.00;;;;;-146.37;100.00;59337.28;6185780;22;44974;-78
2021/10/22 15:02:12;;;;;;;;;4.00;3.00;;;;;-146.37;100.00;59337.28;6192537;22;45274;-78
2021/10/22 15:04:50;;;;;;;;;6.33;5.00;;;;;-146.37;100.00;59337.28;6217428;22;45399;-80
2021/10/22 15:07:17;;;;;;;;;2.75;2.75;;;;;-146.37;100.00;59337.28;6191152;22;45494;-77
2021/10/22 15:09:46;;;;;;;;;2.25;2.00;;;;;-146.37;100.00;59337.28;6216215;22;45858;-78
2021/10/22 15:12:14;;;;;;;;;5.25;2.25;;;;;-146.37;100.00;59337.28;6220522;22;47587;-79
2021/10/22 15:14:55;;;;;;;;;;;;;;;;;;;;;
2021/10/22 15:17:24;;;;;;;;;2.67;2.00;;;;;-146.37;100.00;59337.28;6261835;22;68266;-78
2021/10/22 15:20:13;;;;;;;;;2.33;2.33;;;;;-146.37;100.00;59337.28;6311266;22;45341;-78
2021/10/22 15:22:41;;;;;;;;;4.00;2.00;;;;;-146.37;100.00;59337.28;6281861;22;45674;-79
2021/10/22 15:25:10;;;;;;;;;3.00;1.67;;;;;-146.37;100.00;59337.28;6282314;22;45405;-79
2021/10/22 15:27:36;;;;;;;;;2.00;2.00;;;;;-146.37;100.00;59337.28;6280821;22;45762;-77
2021/10/22 15:30:10;;;;;;;;;2.00;2.00;;;;;-146.37;100.00;59337.28;6282658;22;45336;-78
2021/10/22 15:32:36;;;;;;;;;7.33;5.00;;;;;-146.37;100.00;59337.28;6281372;22;47011;-78
2021/10/22 15:35:02;;;;;;;;;2.67;2.67;;;;;-146.37;100.00;59337.28;6284848;22;45352;-78
2021/10/22 15:37:36;;;;;;;;;1.00;1.00;;;;;-146.37;100.00;59337.28;6282071;22;45286;-79
2021/10/22 15:40:36;;;;;;;;;1.00;1.00;;;;;-146.37;100.00;59337.28;6310847;22;45734;-79
2021/10/22 15:43:04;;;;;;;;;3.67;3.67;;;;;-146.37;100.00;59337.28;6309131;22;47534;-78
2021/10/22 15:45:31;;;;;;;;;4.00;3.00;;;;;-146.37;100.00;59337.28;6282632;22;45482;-79
2021/10/22 15:47:57;;;;;;;;;4.00;3.00;;;;;-146.37;100.00;59337.28;6283237;22;45376;-77
2021/10/22 15:53:44;;;;;;;;;5.33;3.67;;;;;-146.37;100.00;59337.28;6310465;22;46097;-78
2021/10/22 15:56:09;;;;;;;;;3.00;3.00;;;;;-146.37;100.00;59337.28;6310658;22;45400;-77
2021/10/22 15:58:35;;;;;;;;;3.00;3.00;;;;;-146.37;100.00;59337.28;6281208;22;45368;-79
2021/10/22 16:01:01;;;;;;;;;5.00;3.33;;;;;-146.37;100.00;59337.28;6283164;22;45429;-79
2021/10/22 16:03:28;;;;;;;;;5.67;3.00;;;;;-146.37;100.00;59337.28;6282750;22;45478;-79
2021/10/22 16:05:56;;;;;;;;;3.50;2.50;;;;;-146.37;100.00;59337.28;6283802;22;45523;-79
2021/10/22 16:31:44;;;;;;;;;4.67;4.67;;;;;-146.37;100.00;59337.28;6285932;22;45453;-85
2021/10/22 16:38:37;;;;;;;;;7.00;5.67;;;;;-146.37;100.00;59337.28;6109352;23;45463;-84
2021/10/22 16:44:49;;;;;;;;;10.00;7.67;;;;;-146.37;100.00;59337.28;6121627;23;45463;-86
2021/10/22 16:51:01;;;;;;;;;9.00;6.00;;;;;-146.37;100.00;59337.28;6122390;23;45424;-86
2021/10/22 16:53:27;;;;;;;;;7.33;5.67;;;;;-146.37;100.00;59337.28;6101686;23;47978;-83
2021/10/22 16:55:52;;;;;;;;;8.33;8.33;;;;;-146.37;100.00;59337.28;6128386;23;45409;-84
2021/10/22 16:58:18;;;;;;;;;5.00;5.00;;;;;-146.37;100.00;59337.28;6128121;23;45124;-84
2021/10/22 17:00:47;;;;;;;;;3.33;3.33;;;;;-146.37;100.00;59337.28;6129009;23;45089;-85
2021/10/22 17:03:13;;;;;;;;;5.67;5.00;;;;;-146.37;100.00;59337.28;6103579;23;46837;-84
2021/10/22 17:05:49;;;;;;;;;7.67;6.00;;;;;-146.37;100.00;59337.28;6136229;23;45414;-84
2021/10/22 17:08:34;;;;;;;;;5.33;5.33;;;;;-146.37;100.00;59337.28;6187524;23;45452;-84
2021/10/22 17:14:47;;;;;;;;;9.33;7.33;;;;;-146.37;100.00;59337.28;6096787;23;45460;-85
2021/10/22 17:17:25;;;;;;;;;11.00;9.00;;;;;-146.37;100.00;59337.28;6099812;23;45426;-84
2021/10/22 17:19:56;;;;;;;;;9.67;8.33;;;;;-146.37;100.00;59337.28;6099478;23;45325;-84
2021/10/22 17:22:44;;;;;;;;;10.00;7.33;;;;;-146.37;100.00;59337.28;6074116;23;45395;-85
2021/10/22 17:25:51;;;;;;;;;7.33;6.67;;;;;-146.37;100.00;59337.28;6099365;23;45444;-85
2021/10/22 17:28:35;;;;;;;;;9.00;9.00;;;;;-146.37;100.00;59337.28;6097356;23;45406;-84
2021/10/22 17:38:35;;;;;;;;;12.67;10.67;;;;;-146.37;100.00;59337.28;6187226;23;45859;-85
2021/10/22 17:41:04;;;;;;;;;12.00;10.00;;;;;-146.37;100.00;59337.28;6162806;22;45361;-85
2021/10/22 17:43:43;;;;;;;;;11.67;11.67;;;;;-146.37;100.00;59337.28;6189115;22;45371;-85
2021/10/22 17:46:30;;;;;;;;;9.00;9.00;;;;;-146.37;100.00;59337.28;6189164;22;45419;-85
2021/10/22 18:06:20;;;;;;;;;8.67;8.67;;;;;-146.37;100.00;59337.28;6308779;22;45638;-86
2021/10/22 18:08:59;;;;;;;;;;;;;;;;;;;;;
2021/10/22 18:15:51;;;;;;;;;8.33;8.33;;;;;-146.37;100.00;59337.28;6052680;23;46197;-86
2021/10/22 18:18:50;;;;;;;;;;;;;;;;;;;;;
2021/10/22 18:21:51;;;;;;;;;;;;;;;;;;;;;
2021/10/22 18:27:38;;;;;;;;;16.33;16.33;;;;;-146.37;100.00;59337.28;5924494;23;46261;-84
2021/10/22 18:30:24;;;;;;;;;;;;;;;;;;;;;
2021/10/22 18:39:52;;;;;;;;;18.67;16.67;;;;;-146.37;100.00;59337.28;5927913;24;45509;-85
2021/10/22 18:42:31;;;;;;;;;19.00;18.00;;;;;-146.37;100.00;59337.28;5926604;23;45009;-85
2021/10/22 18:45:36;;;;;;;;;16.33;12.67;;;;;-146.37;100.00;59337.28;5926415;24;45805;-85
2021/10/22 18:48:06;;;;;;;;;17.67;15.00;;;;;-146.37;100.00;59337.28;5927795;24;45460;-85
2021/10/22 18:53:42;;;;;;;;;18.67;17.00;;;;;-146.37;100.00;59337.28;6038475;23;45445;-85
2021/10/22 19:00:18;;;;;;;;;18.00;17.67;;;;;-146.37;100.00;59337.28;6037767;23;45604;-85
2021/10/22 19:03:39;;;;;;;;;17.67;17.67;;;;;-146.37;100.00;59337.28;6073239;23;45483;-85
2021/10/22 19:06:16;;;;;;;;;20.33;17.33;;;;;-146.37;100.00;59337.28;6125764;23;45938;-84
2021/10/22 19:08:49;;;;;;;;;23.00;19.33;;;;;-146.37;100.00;59337.28;6100714;23;44838;-84
2021/10/22 19:15:09;;;;;;;;;12.00;12.00;;;;;-146.37;100.00;59337.28;6095012;23;45417;-84
2021/10/22 19:18:10;;;;;;;;;15.00;14.00;;;;;-146.37;100.00;59337.28;6076752;23;45300;-85
2021/10/22 19:21:11;;;;;;;;;14.67;14.00;;;;;-146.37;100.00;59337.28;6099720;23;45578;-86
2021/10/22 19:24:12;;;;;;;;;20.00;18.00;;;;;-146.37;100.00;59337.28;6078839;23;45437;-85
2021/10/22 19:27:07;;;;;;;;;18.67;17.33;;;;;-146.37;100.00;59337.28;6038823;23;45333;-85
2021/10/22 19:29:35;;;;;;;;;17.33;16.67;;;;;-146.37;100.00;59337.28;6038280;23;45504;-86
2021/10/22 19:32:12;;;;;;;;;21.67;18.33;;;;;-146.37;100.00;59337.28;6014925;23;45756;-85
2021/10/22 19:34:44;;;;;;;;;18.33;14.67;;;;;-146.37;100.00;59337.28;6015158;23;45027;-86
2021/10/22 19:37:17;;;;;;;;;18.00;18.00;;;;;-146.37;100.00;59337.28;6040196;23;46684;-85
2021/10/22 19:39:44;;;;;;;;;16.33;16.33;;;;;-146.37;100.00;59337.28;6017853;23;45250;-85